sensor_id;sensor_type;location;lat;lon;timestamp;pressure;altitude;pressure_sealevel;temperature;humidity
5522;BME280;2783;48.730;8.006;2023-02-08T00:00:31;102112.53;;;0.63;79.74
5522;BME280;2783;48.730;8.006;2023-02-08T00:02:56;102101.09;;;0.61;79.79
5522;BME280;2783;48.730;8.006;2023-02-08T00:05:21;102091.41;;;0.59;80.26
5522;BME280;2783;48.730;8.006;2023-02-08T00:07:46;102092.38;;;0.61;79.90
5522;BME280;2783;48.730;8.006;2023-02-08T00:10:12;102085.47;;;0.63;79.96
5522;BME280;2783;48.730;8.006;2023-02-08T00:12:37;102089.03;;;0.65;80.36
5522;BME280;2783;48.730;8.006;2023-02-08T00:15:03;102090.00;;;0.67;79.86
5522;BME280;2783;48.730;8.006;2023-02-08T00:17:28;102088.41;;;0.70;79.71
5522;BME280;2783;48.730;8.006;2023-02-08T00:19:54;102083.09;;;0.69;80.02
5522;BME280;2783;48.730;8.006;2023-02-08T00:22:19;102089.03;;;0.65;79.83
5522;BME280;2783;48.730;8.006;2023-02-08T00:24:44;102087.31;;;0.65;80.47
5522;BME280;2783;48.730;8.006;2023-02-08T00:27:09;102094.16;;;0.62;79.83
5522;BME280;2783;48.730;8.006;2023-02-08T00:29:35;102080.09;;;0.60;80.16
5522;BME280;2783;48.730;8.006;2023-02-08T00:32:00;102075.81;;;0.62;80.25
5522;BME280;2783;48.730;8.006;2023-02-08T00:34:25;102080.94;;;0.59;79.67
5522;BME280;2783;48.730;8.006;2023-02-08T00:36:51;102073.16;;;0.60;80.29
5522;BME280;2783;48.730;8.006;2023-02-08T00:39:16;102075.81;;;0.62;79.06
5522;BME280;2783;48.730;8.006;2023-02-08T00:41:41;102068.94;;;0.64;79.54
5522;BME280;2783;48.730;8.006;2023-02-08T00:44:07;102075.72;;;0.59;78.22
5522;BME280;2783;48.730;8.006;2023-02-08T00:46:32;102069.56;;;0.58;78.36
5522;BME280;2783;48.730;8.006;2023-02-08T00:48:57;102066.91;;;0.57;78.10
5522;BME280;2783;48.730;8.006;2023-02-08T00:51:22;102073.03;;;0.57;77.56
5522;BME280;2783;48.730;8.006;2023-02-08T00:53:48;102076.34;;;0.53;77.89
5522;BME280;2783;48.730;8.006;2023-02-08T00:56:13;102078.91;;;0.52;77.78
5522;BME280;2783;48.730;8.006;2023-02-08T00:58:39;102077.13;;;0.51;78.44
5522;BME280;2783;48.730;8.006;2023-02-08T01:01:04;102076.00;;;0.44;77.52
5522;BME280;2783;48.730;8.006;2023-02-08T01:03:31;102077.81;;;0.47;78.15
5522;BME280;2783;48.730;8.006;2023-02-08T01:06:04;102075.22;;;0.47;77.77
5522;BME280;2783;48.730;8.006;2023-02-08T01:08:30;102066.53;;;0.48;77.41
5522;BME280;2783;48.730;8.006;2023-02-08T01:11:09;102065.59;;;0.46;77.65
5522;BME280;2783;48.730;8.006;2023-02-08T01:13:35;102062.97;;;0.46;77.55
5522;BME280;2783;48.730;8.006;2023-02-08T01:16:11;102064.75;;;0.47;76.98
5522;BME280;2783;48.730;8.006;2023-02-08T01:18:37;102069.91;;;0.45;76.66
5522;BME280;2783;48.730;8.006;2023-02-08T01:21:05;102069.06;;;0.46;75.57
5522;BME280;2783;48.730;8.006;2023-02-08T01:23:30;102066.66;;;0.51;75.93
5522;BME280;2783;48.730;8.006;2023-02-08T01:25:56;102064.22;;;0.55;74.73
5522;BME280;2783;48.730;8.006;2023-02-08T01:28:21;102070.34;;;0.56;74.46
5522;BME280;2783;48.730;8.006;2023-02-08T01:30:46;102072.13;;;0.57;74.07
5522;BME280;2783;48.730;8.006;2023-02-08T01:33:11;102056.53;;;0.60;73.62
5522;BME280;2783;48.730;8.006;2023-02-08T01:35:36;102058.47;;;0.64;73.95
5522;BME280;2783;48.730;8.006;2023-02-08T01:38:02;102061.78;;;0.60;73.27
5522;BME280;2783;48.730;8.006;2023-02-08T01:40:27;102062.44;;;0.54;73.12
5522;BME280;2783;48.730;8.006;2023-02-08T01:42:52;102072.75;;;0.51;73.88
5522;BME280;2783;48.730;8.006;2023-02-08T01:45:28;102058.69;;;0.48;73.80
5522;BME280;2783;48.730;8.006;2023-02-08T01:47:56;102061.16;;;0.45;75.65
5522;BME280;2783;48.730;8.006;2023-02-08T01:50:24;102063.72;;;0.43;76.16
5522;BME280;2783;48.730;8.006;2023-02-08T01:52:51;102058.47;;;0.43;75.01
5522;BME280;2783;48.730;8.006;2023-02-08T01:55:18;102061.03;;;0.42;75.31
5522;BME280;2783;48.730;8.006;2023-02-08T01:57:45;102062.06;;;0.45;75.88
5522;BME280;2783;48.730;8.006;2023-02-08T02:00:17;102058.47;;;0.43;75.53
5522;BME280;2783;48.730;8.006;2023-02-08T02:02:46;102052.22;;;0.40;75.63
5522;BME280;2783;48.730;8.006;2023-02-08T02:05:13;102055.69;;;0.39;75.70
5522;BME280;2783;48.730;8.006;2023-02-08T02:07:38;102051.28;;;0.38;75.26
5522;BME280;2783;48.730;8.006;2023-02-08T02:12:42;102044.47;;;0.41;76.15
5522;BME280;2783;48.730;8.006;2023-02-08T02:15:08;102042.66;;;0.40;76.16
5522;BME280;2783;48.730;8.006;2023-02-08T02:17:34;102038.97;;;0.35;76.18
5522;BME280;2783;48.730;8.006;2023-02-08T02:27:30;102037.94;;;0.32;77.24
5522;BME280;2783;48.730;8.006;2023-02-08T02:32:48;102032.75;;;0.33;77.51
5522;BME280;2783;48.730;8.006;2023-02-08T02:36:01;102029.00;;;0.27;77.20
5522;BME280;2783;48.730;8.006;2023-02-08T02:38:12;102035.16;;;0.27;77.79
5522;BME280;2783;48.730;8.006;2023-02-08T02:54:18;102032.97;;;0.17;77.77
5522;BME280;2783;48.730;8.006;2023-02-08T02:56:50;102038.16;;;0.16;78.35
5522;BME280;2783;48.730;8.006;2023-02-08T02:59:17;102037.19;;;0.14;78.05
5522;BME280;2783;48.730;8.006;2023-02-08T03:01:43;102040.66;;;0.13;78.77
5522;BME280;2783;48.730;8.006;2023-02-08T03:04:16;102037.84;;;0.08;78.50
5522;BME280;2783;48.730;8.006;2023-02-08T03:12:34;102024.44;;;0.00;77.79
5522;BME280;2783;48.730;8.006;2023-02-08T03:20:17;102023.28;;;-0.06;79.11
5522;BME280;2783;48.730;8.006;2023-02-08T03:25:16;102029.19;;;-0.12;78.57
5522;BME280;2783;48.730;8.006;2023-02-08T03:30:46;102029.19;;;-0.12;78.50
5522;BME280;2783;48.730;8.006;2023-02-08T03:33:27;102027.38;;;-0.13;78.54
5522;BME280;2783;48.730;8.006;2023-02-08T03:36:00;102021.06;;;-0.18;78.82
5522;BME280;2783;48.730;8.006;2023-02-08T03:40:52;102019.22;;;-0.20;79.35
5522;BME280;2783;48.730;8.006;2023-02-08T03:43:21;102015.69;;;-0.21;78.92
5522;BME280;2783;48.730;8.006;2023-02-08T03:45:49;102014.72;;;-0.23;80.17
5522;BME280;2783;48.730;8.006;2023-02-08T03:48:16;102030.47;;;-0.21;79.63
5522;BME280;2783;48.730;8.006;2023-02-08T03:50:45;102026.03;;;-0.24;79.84
5522;BME280;2783;48.730;8.006;2023-02-08T03:53:11;102024.31;;;-0.23;79.94
5522;BME280;2783;48.730;8.006;2023-02-08T03:55:39;102022.50;;;-0.24;79.90
5522;BME280;2783;48.730;8.006;2023-02-08T03:58:17;102016.13;;;-0.31;80.39
5522;BME280;2783;48.730;8.006;2023-02-08T04:00:47;102014.34;;;-0.32;79.98
5522;BME280;2783;48.730;8.006;2023-02-08T04:03:16;102010.78;;;-0.34;79.71
5522;BME280;2783;48.730;8.006;2023-02-08T04:05:43;102014.91;;;-0.39;79.43
5522;BME280;2783;48.730;8.006;2023-02-08T04:08:08;102012.31;;;-0.39;78.95
5522;BME280;2783;48.730;8.006;2023-02-08T04:10:34;102024.69;;;-0.35;79.10
5522;BME280;2783;48.730;8.006;2023-02-08T04:12:59;102022.06;;;-0.35;79.08
5522;BME280;2783;48.730;8.006;2023-02-08T04:15:24;102021.31;;;-0.32;79.31
5522;BME280;2783;48.730;8.006;2023-02-08T04:17:51;102024.69;;;-0.35;78.35
5522;BME280;2783;48.730;8.006;2023-02-08T04:20:16;102025.44;;;-0.37;77.88
5522;BME280;2783;48.730;8.006;2023-02-08T04:22:42;102028.72;;;-0.41;77.67
5522;BME280;2783;48.730;8.006;2023-02-08T04:25:07;102021.16;;;-0.35;76.50
5522;BME280;2783;48.730;8.006;2023-02-08T04:27:32;102024.53;;;-0.38;76.33
5522;BME280;2783;48.730;8.006;2023-02-08T04:29:57;102019.47;;;-0.35;76.06
5522;BME280;2783;48.730;8.006;2023-02-08T04:32:23;102014.34;;;-0.32;76.27
5522;BME280;2783;48.730;8.006;2023-02-08T04:34:48;102019.47;;;-0.35;77.10
5522;BME280;2783;48.730;8.006;2023-02-08T04:37:13;102016.00;;;-0.34;77.07
5522;BME280;2783;48.730;8.006;2023-02-08T04:39:38;102015.09;;;-0.34;76.35
5522;BME280;2783;48.730;8.006;2023-02-08T04:42:04;102009.00;;;-0.35;76.34
5522;BME280;2783;48.730;8.006;2023-02-08T04:44:29;102007.31;;;-0.33;76.80
5522;BME280;2783;48.730;8.006;2023-02-08T04:46:56;102008.03;;;-0.37;76.77
5522;BME280;2783;48.730;8.006;2023-02-08T04:49:22;102009.75;;;-0.37;76.80
5522;BME280;2783;48.730;8.006;2023-02-08T04:51:47;101998.56;;;-0.35;77.00
5522;BME280;2783;48.730;8.006;2023-02-08T04:54:12;102000.19;;;-0.37;76.79
5522;BME280;2783;48.730;8.006;2023-02-08T04:56:37;101989.88;;;-0.34;76.60
5522;BME280;2783;48.730;8.006;2023-02-08T04:59:03;101986.28;;;-0.36;76.73
5522;BME280;2783;48.730;8.006;2023-02-08T05:01:28;101983.66;;;-0.36;76.09
5522;BME280;2783;48.730;8.006;2023-02-08T05:03:53;101985.47;;;-0.35;76.64
5522;BME280;2783;48.730;8.006;2023-02-08T05:06:19;101981.78;;;-0.40;76.55
5522;BME280;2783;48.730;8.006;2023-02-08T05:08:44;101974.19;;;-0.34;76.00
5522;BME280;2783;48.730;8.006;2023-02-08T05:11:09;101978.56;;;-0.33;75.87
5522;BME280;2783;48.730;8.006;2023-02-08T05:13:34;101974.13;;;-0.35;76.17
5522;BME280;2783;48.730;8.006;2023-02-08T05:16:00;101978.31;;;-0.39;76.51
5522;BME280;2783;48.730;8.006;2023-02-08T05:18:25;101980.31;;;-0.33;76.22
5522;BME280;2783;48.730;8.006;2023-02-08T05:20:54;101978.44;;;-0.36;76.59
5522;BME280;2783;48.730;8.006;2023-02-08T05:23:19;101973.03;;;-0.40;76.78
5522;BME280;2783;48.730;8.006;2023-02-08T05:25:46;101978.25;;;-0.40;77.12
5522;BME280;2783;48.730;8.006;2023-02-08T05:28:12;101976.44;;;-0.41;77.01
5522;BME280;2783;48.730;8.006;2023-02-08T05:30:37;101978.19;;;-0.42;76.89
5522;BME280;2783;48.730;8.006;2023-02-08T05:33:02;101978.19;;;-0.42;76.35
5522;BME280;2783;48.730;8.006;2023-02-08T05:35:28;101973.78;;;-0.43;76.83
5522;BME280;2783;48.730;8.006;2023-02-08T05:37:53;101982.59;;;-0.41;77.10
5522;BME280;2783;48.730;8.006;2023-02-08T05:40:18;101985.19;;;-0.41;76.44
5522;BME280;2783;48.730;8.006;2023-02-08T05:42:44;101985.06;;;-0.44;76.07
5522;BME280;2783;48.730;8.006;2023-02-08T05:45:09;101979.00;;;-0.43;75.57
5522;BME280;2783;48.730;8.006;2023-02-08T05:47:35;101973.84;;;-0.41;74.26
5522;BME280;2783;48.730;8.006;2023-02-08T05:50:00;101975.72;;;-0.39;73.61
5522;BME280;2783;48.730;8.006;2023-02-08T05:52:25;101973.78;;;-0.43;74.09
5522;BME280;2783;48.730;8.006;2023-02-08T05:54:50;101977.34;;;-0.41;74.71
5522;BME280;2783;48.730;8.006;2023-02-08T05:57:16;101975.59;;;-0.42;73.86
5522;BME280;2783;48.730;8.006;2023-02-08T05:59:41;101978.19;;;-0.42;73.89
5522;BME280;2783;48.730;8.006;2023-02-08T06:02:06;101986.78;;;-0.44;74.36
5522;BME280;2783;48.730;8.006;2023-02-08T06:04:31;101990.25;;;-0.45;74.53
5522;BME280;2783;48.730;8.006;2023-02-08T06:06:57;101980.53;;;-0.48;75.39
5522;BME280;2783;48.730;8.006;2023-02-08T06:09:22;101993.47;;;-0.51;75.96
5522;BME280;2783;48.730;8.006;2023-02-08T06:11:47;101996.22;;;-0.48;76.18
5522;BME280;2783;48.730;8.006;2023-02-08T06:14:13;101999.66;;;-0.49;76.68
5522;BME280;2783;48.730;8.006;2023-02-08T06:16:38;101998.69;;;-0.51;76.44
5522;BME280;2783;48.730;8.006;2023-02-08T06:19:03;101995.94;;;-0.54;76.46
5522;BME280;2783;48.730;8.006;2023-02-08T06:21:28;102000.16;;;-0.57;76.71
5522;BME280;2783;48.730;8.006;2023-02-08T06:23:54;101995.81;;;-0.57;77.00
5522;BME280;2783;48.730;8.006;2023-02-08T06:26:19;102009.72;;;-0.58;76.86
5522;BME280;2783;48.730;8.006;2023-02-08T06:28:44;102004.22;;;-0.64;77.21
5522;BME280;2783;48.730;8.006;2023-02-08T06:31:10;102006.97;;;-0.61;77.86
5522;BME280;2783;48.730;8.006;2023-02-08T06:33:35;102009.72;;;-0.58;77.26
5522;BME280;2783;48.730;8.006;2023-02-08T06:36:00;102008.19;;;-0.53;76.72
5522;BME280;2783;48.730;8.006;2023-02-08T06:38:25;102003.97;;;-0.49;76.41
5522;BME280;2783;48.730;8.006;2023-02-08T06:40:51;102000.56;;;-0.48;76.15
5522;BME280;2783;48.730;8.006;2023-02-08T06:43:17;102007.69;;;-0.44;76.07
5522;BME280;2783;48.730;8.006;2023-02-08T06:45:43;102007.06;;;-0.39;75.72
5522;BME280;2783;48.730;8.006;2023-02-08T06:48:08;102012.97;;;-0.43;75.83
5522;BME280;2783;48.730;8.006;2023-02-08T06:50:34;102008.66;;;-0.42;75.62
5522;BME280;2783;48.730;8.006;2023-02-08T06:52:59;102016.44;;;-0.44;75.45
5522;BME280;2783;48.730;8.006;2023-02-08T06:55:24;102011.53;;;-0.36;75.37
5522;BME280;2783;48.730;8.006;2023-02-08T06:57:52;102010.53;;;-0.40;75.32
5522;BME280;2783;48.730;8.006;2023-02-08T07:00:17;102018.38;;;-0.40;75.88
5522;BME280;2783;48.730;8.006;2023-02-08T07:02:43;102021.91;;;-0.38;76.00
5522;BME280;2783;48.730;8.006;2023-02-08T07:05:11;102019.31;;;-0.38;75.86
5522;BME280;2783;48.730;8.006;2023-02-08T07:07:36;102025.44;;;-0.37;76.44
5522;BME280;2783;48.730;8.006;2023-02-08T07:10:01;102024.69;;;-0.35;76.37
5522;BME280;2783;48.730;8.006;2023-02-08T07:12:27;102021.97;;;-0.36;76.88
5522;BME280;2783;48.730;8.006;2023-02-08T07:14:52;102013.41;;;-0.34;76.21
5522;BME280;2783;48.730;8.006;2023-02-08T07:17:17;102024.81;;;-0.32;76.35
5522;BME280;2783;48.730;8.006;2023-02-08T07:19:42;102019.09;;;-0.23;76.62
5522;BME280;2783;48.730;8.006;2023-02-08T07:22:08;102023.28;;;-0.27;76.02
5522;BME280;2783;48.730;8.006;2023-02-08T07:24:34;102021.59;;;-0.25;75.56
5522;BME280;2783;48.730;8.006;2023-02-08T07:26:59;102023.78;;;-0.15;75.97
5522;BME280;2783;48.730;8.006;2023-02-08T07:29:25;102018.72;;;-0.12;75.77
5522;BME280;2783;48.730;8.006;2023-02-08T07:31:50;102010.16;;;-0.08;75.22
5522;BME280;2783;48.730;8.006;2023-02-08T07:34:15;102020.47;;;0.31;74.41
5522;BME280;2783;48.730;8.006;2023-02-08T07:36:45;102007.97;;;0.68;73.95
5522;BME280;2783;48.730;8.006;2023-02-08T07:39:10;102015.72;;;1.81;71.19
5522;BME280;2783;48.730;8.006;2023-02-08T07:41:36;102001.13;;;2.70;63.79
5522;BME280;2783;48.730;8.006;2023-02-08T07:44:01;102017.50;;;3.20;60.10
5522;BME280;2783;48.730;8.006;2023-02-08T07:46:26;102001.50;;;4.07;58.18
5522;BME280;2783;48.730;8.006;2023-02-08T07:48:52;101995.44;;;5.69;53.59
5522;BME280;2783;48.730;8.006;2023-02-08T07:51:17;101998.97;;;7.36;48.83
5522;BME280;2783;48.730;8.006;2023-02-08T07:53:43;101988.72;;;8.65;45.49
5522;BME280;2783;48.730;8.006;2023-02-08T07:56:08;101979.38;;;9.46;42.79
5522;BME280;2783;48.730;8.006;2023-02-08T07:58:34;101983.09;;;10.60;41.64
5522;BME280;2783;48.730;8.006;2023-02-08T08:00:59;101986.50;;;11.08;38.09
5522;BME280;2783;48.730;8.006;2023-02-08T08:03:25;101980.25;;;11.21;37.85
5522;BME280;2783;48.730;8.006;2023-02-08T08:05:50;101978.09;;;11.95;37.14
5522;BME280;2783;48.730;8.006;2023-02-08T08:08:15;101974.75;;;11.64;35.64
5522;BME280;2783;48.730;8.006;2023-02-08T08:10:41;101974.03;;;11.25;37.39
5522;BME280;2783;48.730;8.006;2023-02-08T08:13:06;101987.41;;;11.08;37.22
5522;BME280;2783;48.730;8.006;2023-02-08T08:15:31;101977.78;;;12.34;36.35
5522;BME280;2783;48.730;8.006;2023-02-08T08:17:57;101987.59;;;12.34;35.13
5522;BME280;2783;48.730;8.006;2023-02-08T08:20:22;101984.56;;;12.67;34.38
5522;BME280;2783;48.730;8.006;2023-02-08T08:22:48;101991.56;;;12.78;34.66
5522;BME280;2783;48.730;8.006;2023-02-08T08:25:13;101996.75;;;12.95;33.96
5522;BME280;2783;48.730;8.006;2023-02-08T08:27:39;101983.72;;;12.66;33.58
5522;BME280;2783;48.730;8.006;2023-02-08T08:30:08;101991.38;;;12.96;33.07
5522;BME280;2783;48.730;8.006;2023-02-08T08:32:33;101980.38;;;13.28;32.99
5522;BME280;2783;48.730;8.006;2023-02-08T08:34:58;101987.88;;;13.66;32.24
5522;BME280;2783;48.730;8.006;2023-02-08T08:37:24;101993.13;;;13.73;32.61
5522;BME280;2783;48.730;8.006;2023-02-08T08:39:49;101988.56;;;14.39;31.21
5522;BME280;2783;48.730;8.006;2023-02-08T08:42:14;101981.56;;;13.71;31.60
5522;BME280;2783;48.730;8.006;2023-02-08T08:44:40;101987.88;;;13.66;32.13
5522;BME280;2783;48.730;8.006;2023-02-08T08:47:07;101987.94;;;13.63;32.06
5522;BME280;2783;48.730;8.006;2023-02-08T08:49:32;101991.94;;;14.99;31.32
5522;BME280;2783;48.730;8.006;2023-02-08T08:51:58;101986.69;;;13.86;31.10
5522;BME280;2783;48.730;8.006;2023-02-08T08:54:23;101980.56;;;13.80;31.23
5522;BME280;2783;48.730;8.006;2023-02-08T08:56:48;101983.84;;;14.00;31.01
5522;BME280;2783;48.730;8.006;2023-02-08T08:59:13;101985.97;;;13.77;31.08
5522;BME280;2783;48.730;8.006;2023-02-08T09:01:39;101981.25;;;13.30;31.05
5522;BME280;2783;48.730;8.006;2023-02-08T09:04:06;101973.44;;;13.77;31.40
5522;BME280;2783;48.730;8.006;2023-02-08T09:06:31;101981.72;;;14.20;30.81
5522;BME280;2783;48.730;8.006;2023-02-08T09:08:56;101977.66;;;13.30;31.26
5522;BME280;2783;48.730;8.006;2023-02-08T09:11:22;101982.19;;;13.24;32.25
5522;BME280;2783;48.730;8.006;2023-02-08T09:13:47;101984.22;;;13.04;31.87
5522;BME280;2783;48.730;8.006;2023-02-08T09:16:17;101974.78;;;13.46;31.29
5522;BME280;2783;48.730;8.006;2023-02-08T09:18:43;101973.31;;;13.88;31.83
5522;BME280;2783;48.730;8.006;2023-02-08T09:21:10;101981.84;;;14.66;30.25
5522;BME280;2783;48.730;8.006;2023-02-08T09:23:35;101988.97;;;15.12;30.45
5522;BME280;2783;48.730;8.006;2023-02-08T09:26:01;101983.00;;;14.51;29.17
5522;BME280;2783;48.730;8.006;2023-02-08T09:28:27;101986.16;;;14.21;30.27
5522;BME280;2783;48.730;8.006;2023-02-08T09:30:53;101985.53;;;15.07;30.32
5522;BME280;2783;48.730;8.006;2023-02-08T09:33:18;101976.97;;;14.38;30.03
5522;BME280;2783;48.730;8.006;2023-02-08T09:35:43;101983.41;;;14.79;30.10
5522;BME280;2783;48.730;8.006;2023-02-08T09:38:08;101985.28;;;14.74;31.05
5522;BME280;2783;48.730;8.006;2023-02-08T09:40:41;101995.13;;;15.17;29.91
5522;BME280;2783;48.730;8.006;2023-02-08T09:43:16;101970.72;;;15.73;29.44
5522;BME280;2783;48.730;8.006;2023-02-08T09:45:54;101976.31;;;14.75;29.59
5522;BME280;2783;48.730;8.006;2023-02-08T09:48:30;101979.91;;;14.74;30.75
5522;BME280;2783;48.730;8.006;2023-02-08T09:51:03;101976.84;;;14.93;29.95
5522;BME280;2783;48.730;8.006;2023-02-08T09:53:33;101978.69;;;15.34;29.58
5522;BME280;2783;48.730;8.006;2023-02-08T09:55:59;101974.78;;;14.62;29.59
5522;BME280;2783;48.730;8.006;2023-02-08T09:58:33;101976.47;;;15.13;29.74
5522;BME280;2783;48.730;8.006;2023-02-08T10:00:59;101974.75;;;14.10;30.57
5522;BME280;2783;48.730;8.006;2023-02-08T10:03:44;101973.16;;;14.51;29.75
5522;BME280;2783;48.730;8.006;2023-02-08T10:06:16;101973.91;;;14.61;29.54
5522;BME280;2783;48.730;8.006;2023-02-08T10:08:43;101973.09;;;14.56;30.82
5522;BME280;2783;48.730;8.006;2023-02-08T10:27:23;101968.50;;;14.64;30.93
5522;BME280;2783;48.730;8.006;2023-02-08T10:35:12;101951.38;;;14.71;29.42
5522;BME280;2783;48.730;8.006;2023-02-08T10:37:39;101948.63;;;14.24;31.30
5522;BME280;2783;48.730;8.006;2023-02-08T10:42:46;101936.34;;;14.12;30.88
5522;BME280;2783;48.730;8.006;2023-02-08T10:45:30;101938.91;;;14.20;31.71
5522;BME280;2783;48.730;8.006;2023-02-08T10:48:00;101931.13;;;15.01;30.90
5522;BME280;2783;48.730;8.006;2023-02-08T10:50:32;101930.28;;;15.00;30.21
5522;BME280;2783;48.730;8.006;2023-02-08T10:52:58;101927.22;;;15.18;30.54
5522;BME280;2783;48.730;8.006;2023-02-08T10:55:23;101924.13;;;15.36;29.98
5522;BME280;2783;48.730;8.006;2023-02-08T10:57:49;101913.81;;;15.18;29.93
5522;BME280;2783;48.730;8.006;2023-02-08T11:00:17;101932.09;;;14.98;29.16
5522;BME280;2783;48.730;8.006;2023-02-08T11:02:43;101921.34;;;15.00;31.30
5522;BME280;2783;48.730;8.006;2023-02-08T11:07:36;101916.22;;;15.70;30.31
5522;BME280;2783;48.730;8.006;2023-02-08T11:13:04;101914.94;;;15.49;30.11
5522;BME280;2783;48.730;8.006;2023-02-08T11:15:36;101911.31;;;15.89;29.34
5522;BME280;2783;48.730;8.006;2023-02-08T11:18:02;101905.19;;;15.83;28.54
5522;BME280;2783;48.730;8.006;2023-02-08T11:20:35;101900.81;;;15.41;30.10
5522;BME280;2783;48.730;8.006;2023-02-08T11:23:01;101895.22;;;15.50;29.28
5522;BME280;2783;48.730;8.006;2023-02-08T11:25:31;101897.22;;;15.42;28.92
5522;BME280;2783;48.730;8.006;2023-02-08T11:27:57;101894.97;;;15.99;29.96
5522;BME280;2783;48.730;8.006;2023-02-08T11:30:24;101901.75;;;16.14;29.50
5522;BME280;2783;48.730;8.006;2023-02-08T11:33:07;101887.75;;;16.35;29.48
5522;BME280;2783;48.730;8.006;2023-02-08T11:35:35;101877.41;;;16.55;28.69
5522;BME280;2783;48.730;8.006;2023-02-08T11:38:01;101875.75;;;15.80;30.17
5522;BME280;2783;48.730;8.006;2023-02-08T11:40:36;101875.63;;;15.85;29.25
5522;BME280;2783;48.730;8.006;2023-02-08T11:43:15;101864.75;;;16.25;30.48
5522;BME280;2783;48.730;8.006;2023-02-08T11:45:44;101867.50;;;16.57;28.46
5522;BME280;2783;48.730;8.006;2023-02-08T11:48:18;101856.97;;;15.80;30.24
5522;BME280;2783;48.730;8.006;2023-02-08T11:50:45;101853.97;;;16.26;29.88
5522;BME280;2783;48.730;8.006;2023-02-08T11:53:50;101844.19;;;16.24;29.45
5522;BME280;2783;48.730;8.006;2023-02-08T11:58:40;101840.88;;;16.48;28.83
5522;BME280;2783;48.730;8.006;2023-02-08T12:01:16;101842.41;;;16.23;28.27
5522;BME280;2783;48.730;8.006;2023-02-08T12:03:42;101844.69;;;16.06;28.30
5522;BME280;2783;48.730;8.006;2023-02-08T12:09:05;101839.19;;;16.44;28.35
5522;BME280;2783;48.730;8.006;2023-02-08T12:11:40;101838.66;;;16.63;28.83
5522;BME280;2783;48.730;8.006;2023-02-08T12:14:30;101827.56;;;17.04;28.63
5522;BME280;2783;48.730;8.006;2023-02-08T12:22:16;101831.53;;;16.29;27.52
5522;BME280;2783;48.730;8.006;2023-02-08T12:34:54;101817.88;;;16.04;28.20
5522;BME280;2783;48.730;8.006;2023-02-08T12:37:25;101821.06;;;16.52;28.04
5522;BME280;2783;48.730;8.006;2023-02-08T12:50:55;101798.84;;;17.62;25.80
5522;BME280;2783;48.730;8.006;2023-02-08T12:53:38;101796.56;;;17.21;26.66
5522;BME280;2783;48.730;8.006;2023-02-08T12:56:13;101796.59;;;17.48;27.16
5522;BME280;2783;48.730;8.006;2023-02-08T12:58:44;101793.16;;;17.71;26.86
5522;BME280;2783;48.730;8.006;2023-02-08T13:01:13;101783.47;;;17.65;27.40
5522;BME280;2783;48.730;8.006;2023-02-08T13:03:48;101783.19;;;17.47;27.51
5522;BME280;2783;48.730;8.006;2023-02-08T13:06:16;101771.47;;;17.49;28.19
5522;BME280;2783;48.730;8.006;2023-02-08T13:11:56;101778.44;;;16.99;28.58
5522;BME280;2783;48.730;8.006;2023-02-08T13:14:01;101770.38;;;16.70;28.00
5522;BME280;2783;48.730;8.006;2023-02-08T13:16:30;101765.34;;;16.26;28.41
5522;BME280;2783;48.730;8.006;2023-02-08T13:21:42;101757.44;;;16.54;27.94
5522;BME280;2783;48.730;8.006;2023-02-08T13:27:03;101754.94;;;15.82;28.54
5522;BME280;2783;48.730;8.006;2023-02-08T13:29:31;101755.44;;;15.98;29.11
5522;BME280;2783;48.730;8.006;2023-02-08T13:32:14;101747.19;;;16.36;28.50
5522;BME280;2783;48.730;8.006;2023-02-08T13:34:45;101752.91;;;16.24;28.08
5522;BME280;2783;48.730;8.006;2023-02-08T13:37:22;101737.19;;;15.43;28.24
5522;BME280;2783;48.730;8.006;2023-02-08T13:39:48;101745.47;;;15.32;28.59
5522;BME280;2783;48.730;8.006;2023-02-08T13:42:19;101736.22;;;15.09;29.20
5522;BME280;2783;48.730;8.006;2023-02-08T13:44:55;101746.84;;;15.13;28.67
5522;BME280;2783;48.730;8.006;2023-02-08T13:47:41;101743.53;;;15.02;28.57
5522;BME280;2783;48.730;8.006;2023-02-08T13:50:54;101739.75;;;14.71;29.18
5522;BME280;2783;48.730;8.006;2023-02-08T13:52:53;101736.09;;;13.90;30.28
5522;BME280;2783;48.730;8.006;2023-02-08T13:58:01;101741.88;;;11.74;33.39
5522;BME280;2783;48.730;8.006;2023-02-08T14:00:30;101751.34;;;10.98;34.88
5522;BME280;2783;48.730;8.006;2023-02-08T14:08:21;101750.94;;;9.59;37.24
5522;BME280;2783;48.730;8.006;2023-02-08T14:10:59;101751.00;;;9.29;38.47
5522;BME280;2783;48.730;8.006;2023-02-08T14:18:58;101738.50;;;8.65;38.54
5522;BME280;2783;48.730;8.006;2023-02-08T14:21:35;101742.88;;;8.52;38.37
5522;BME280;2783;48.730;8.006;2023-02-08T14:24:21;101734.00;;;8.49;38.77
5522;BME280;2783;48.730;8.006;2023-02-08T14:26:47;101730.44;;;8.33;40.03
5522;BME280;2783;48.730;8.006;2023-02-08T14:29:20;101736.59;;;8.31;40.00
5522;BME280;2783;48.730;8.006;2023-02-08T14:31:47;101729.53;;;8.30;40.52
5522;BME280;2783;48.730;8.006;2023-02-08T14:34:19;101733.00;;;8.18;40.23
5522;BME280;2783;48.730;8.006;2023-02-08T14:36:45;101733.00;;;8.17;40.67
5522;BME280;2783;48.730;8.006;2023-02-08T14:39:23;101731.19;;;8.16;40.19
5522;BME280;2783;48.730;8.006;2023-02-08T14:46:59;101724.06;;;7.99;40.13
5522;BME280;2783;48.730;8.006;2023-02-08T14:49:24;101732.84;;;7.92;41.00
5522;BME280;2783;48.730;8.006;2023-02-08T14:51:53;101729.25;;;7.78;41.43
5522;BME280;2783;48.730;8.006;2023-02-08T14:54:28;101726.59;;;7.75;41.55
5522;BME280;2783;48.730;8.006;2023-02-08T14:57:00;101724.75;;;7.65;41.58
5522;BME280;2783;48.730;8.006;2023-02-08T14:59:29;101719.44;;;7.59;40.52
5522;BME280;2783;48.730;8.006;2023-02-08T15:01:58;101714.94;;;7.49;41.72
5522;BME280;2783;48.730;8.006;2023-02-08T15:04:24;101716.72;;;7.50;41.53
5522;BME280;2783;48.730;8.006;2023-02-08T15:09:35;101720.16;;;7.40;42.65
5522;BME280;2783;48.730;8.006;2023-02-08T15:14:30;101720.03;;;7.22;42.17
5522;BME280;2783;48.730;8.006;2023-02-08T15:16:57;101717.41;;;7.25;41.55
5522;BME280;2783;48.730;8.006;2023-02-08T15:19:27;101730.59;;;7.22;41.87
5522;BME280;2783;48.730;8.006;2023-02-08T15:21:53;101721.75;;;7.17;42.08
5522;BME280;2783;48.730;8.006;2023-02-08T15:24:19;101713.81;;;7.20;42.07
5522;BME280;2783;48.730;8.006;2023-02-08T15:26:47;101719.03;;;7.10;43.58
5522;BME280;2783;48.730;8.006;2023-02-08T15:29:25;101703.09;;;7.04;42.24
5522;BME280;2783;48.730;8.006;2023-02-08T15:31:51;101709.25;;;7.00;42.50
5522;BME280;2783;48.730;8.006;2023-02-08T15:34:21;101702.16;;;6.97;42.53
5522;BME280;2783;48.730;8.006;2023-02-08T15:36:50;101706.56;;;6.95;43.14